createdAt,value
2022-10-06T00:00:50.080Z,28.09
2022-10-06T00:03:39.268Z,28.17
2022-10-06T00:06:28.046Z,27.98
2022-10-06T00:09:10.432Z,27.86
2022-10-06T00:11:59.012Z,28.02
2022-10-06T00:14:41.321Z,28.05
2022-10-06T00:17:30.026Z,28.11
2022-10-06T00:20:13.365Z,27.85
2022-10-06T00:23:02.028Z,27.78
2022-10-06T00:25:44.297Z,27.67
2022-10-06T00:28:33.533Z,27.73
2022-10-06T00:31:17.299Z,27.62
2022-10-06T00:34:06.023Z,27.82
2022-10-06T00:36:48.318Z,27.80
2022-10-06T00:39:37.279Z,27.71
2022-10-06T00:42:37.319Z,27.71
2022-10-06T00:45:29.072Z,27.84
2022-10-06T00:48:17.307Z,27.87
2022-10-06T00:51:07.046Z,27.70
2022-10-06T00:53:50.326Z,27.60
2022-10-06T00:56:40.057Z,27.36
2022-10-06T00:59:26.353Z,27.60
2022-10-06T01:02:26.100Z,27.68
2022-10-06T01:05:23.869Z,27.53
2022-10-06T01:08:13.015Z,27.70
2022-10-06T01:10:55.306Z,27.77
2022-10-06T01:13:45.140Z,27.70
2022-10-06T01:16:33.290Z,27.71
2022-10-06T01:19:55.012Z,27.66
2022-10-06T01:23:21.323Z,27.90
2022-10-06T01:26:15.345Z,27.47
2022-10-06T01:28:59.008Z,27.50
2022-10-06T01:31:47.924Z,27.64
2022-10-06T01:34:37.994Z,27.68
2022-10-06T01:37:20.184Z,27.63
2022-10-06T01:40:10.062Z,27.91
2022-10-06T01:42:59.302Z,27.95
2022-10-06T01:45:42.063Z,27.73
2022-10-06T01:48:31.657Z,27.56
2022-10-06T01:51:17.034Z,27.57
2022-10-06T01:54:05.914Z,27.30
2022-10-06T01:56:55.037Z,27.25
2022-10-06T01:59:43.309Z,27.24
2022-10-06T02:02:25.999Z,27.58
2022-10-06T02:05:22.874Z,27.30
2022-10-06T02:08:12.066Z,27.62
2022-10-06T02:10:55.305Z,27.40
2022-10-06T02:13:46.052Z,27.11
2022-10-06T02:16:28.415Z,27.68
2022-10-06T02:19:17.008Z,27.92
2022-10-06T02:21:59.594Z,27.61
2022-10-06T02:24:48.027Z,27.89
2022-10-06T02:27:36.909Z,28.10
2022-10-06T02:30:28.062Z,28.24
2022-10-06T02:33:11.445Z,28.31
2022-10-06T02:36:03.990Z,28.43
2022-10-06T02:38:47.304Z,28.60
2022-10-06T02:41:36.009Z,28.68
2022-10-06T02:44:24.919Z,28.59
2022-10-06T02:47:14.014Z,28.68
2022-10-06T02:50:04.029Z,28.52
2022-10-06T02:52:47.005Z,28.72
2022-10-06T02:55:35.994Z,29.05
2022-10-06T02:58:25.259Z,29.25
2022-10-06T03:01:14.292Z,28.93
2022-10-06T03:04:03.070Z,29.32
2022-10-06T03:06:52.288Z,29.39
2022-10-06T03:09:39.019Z,29.28
2022-10-06T03:12:28.006Z,29.39
2022-10-06T03:15:10.289Z,29.17
2022-10-06T03:18:00.021Z,29.55
2022-10-06T03:20:49.910Z,29.50
2022-10-06T03:23:39.066Z,29.51
2022-10-06T03:26:23.576Z,29.54
2022-10-06T03:29:15.687Z,29.79
2022-10-06T03:32:02.325Z,29.88
2022-10-06T03:34:54.026Z,29.91
2022-10-06T03:37:37.461Z,29.75
2022-10-06T03:40:25.996Z,29.93
2022-10-06T03:43:08.307Z,29.96
2022-10-06T03:46:05.005Z,30.17
2022-10-06T03:48:54.939Z,30.18
2022-10-06T03:51:47.996Z,30.32
2022-10-06T03:54:41.019Z,30.38
2022-10-06T03:57:30.004Z,30.44
2022-10-06T04:00:19.992Z,30.57
2022-10-06T04:03:09.077Z,31.03
2022-10-06T04:06:06.287Z,31.09
2022-10-06T04:08:50.029Z,31.27
2022-10-06T04:11:35.893Z,31.75
2022-10-06T04:14:28.021Z,32.00
2022-10-06T04:17:11.244Z,32.07
2022-10-06T04:19:59.992Z,32.29
2022-10-06T04:22:42.205Z,32.09
2022-10-06T04:25:35.436Z,32.34
2022-10-06T04:28:18.279Z,32.85
2022-10-06T04:31:15.039Z,32.83
2022-10-06T04:34:06.012Z,32.74
2022-10-06T04:36:50.277Z,33.38
2022-10-06T04:39:38.000Z,33.91
2022-10-06T04:42:31.299Z,33.52
2022-10-06T04:45:21.227Z,33.98
2022-10-06T04:48:10.244Z,34.29
2022-10-06T04:51:19.987Z,34.39
2022-10-06T04:54:11.020Z,34.40
2022-10-06T04:56:54.255Z,34.10
2022-10-06T05:00:07.060Z,33.77
2022-10-06T05:03:03.990Z,34.89
2022-10-06T05:06:00.071Z,35.04
2022-10-06T05:08:42.814Z,34.51
2022-10-06T05:11:32.993Z,34.80
2022-10-06T05:14:17.448Z,35.16
2022-10-06T05:17:05.997Z,34.97
2022-10-06T05:19:48.326Z,34.69
2022-10-06T05:22:38.014Z,34.89
2022-10-06T05:25:20.192Z,33.77
2022-10-06T05:28:09.066Z,34.52
2022-10-06T05:31:10.288Z,34.68
2022-10-06T05:33:54.091Z,34.70
2022-10-06T05:36:44.271Z,35.08
2022-10-06T05:39:27.017Z,34.74
2022-10-06T05:42:09.205Z,34.95
2022-10-06T05:44:58.069Z,35.73
2022-10-06T05:47:42.326Z,35.86
2022-10-06T05:50:31.002Z,36.02
2022-10-06T05:53:14.104Z,35.61
2022-10-06T05:56:03.056Z,35.15
2022-10-06T05:58:56.287Z,35.70
2022-10-06T06:01:50.127Z,35.97
2022-10-06T06:04:59.860Z,35.79
2022-10-06T06:07:49.001Z,35.47
2022-10-06T06:10:31.274Z,34.95
2022-10-06T06:13:21.006Z,35.19
2022-10-06T06:16:13.323Z,35.41
2022-10-06T06:19:02.086Z,35.04
2022-10-06T06:21:47.288Z,34.22
2022-10-06T06:24:36.007Z,34.97
2022-10-06T06:27:19.308Z,34.86
2022-10-06T06:30:09.066Z,35.19
2022-10-06T06:32:52.361Z,35.46
2022-10-06T06:35:42.044Z,35.34
2022-10-06T06:38:25.378Z,35.21
2022-10-06T06:41:21.287Z,35.45
2022-10-06T06:44:15.155Z,35.10
2022-10-06T06:47:14.002Z,35.56
2022-10-06T06:49:56.424Z,35.24
2022-10-06T06:52:46.101Z,34.52
2022-10-06T06:55:28.317Z,34.88
2022-10-06T06:58:18.005Z,34.73
2022-10-06T07:01:01.312Z,35.23
2022-10-06T07:03:57.612Z,34.38
2022-10-06T07:07:05.869Z,34.60
2022-10-06T07:09:56.019Z,35.12
2022-10-06T07:12:48.000Z,34.89
2022-10-06T07:15:54.523Z,34.99
2022-10-06T07:18:54.991Z,34.83
2022-10-06T07:22:02.008Z,34.84
2022-10-06T07:25:02.891Z,34.74
2022-10-06T07:28:01.101Z,34.09
2022-10-06T07:30:47.313Z,34.88
2022-10-06T07:33:39.058Z,35.22
2022-10-06T07:36:23.031Z,34.61
2022-10-06T07:39:12.076Z,35.04
2022-10-06T07:41:54.347Z,35.22
2022-10-06T07:44:44.020Z,34.99
2022-10-06T07:47:26.280Z,34.74
2022-10-06T07:50:15.980Z,34.83
2022-10-06T07:52:58.298Z,34.55
2022-10-06T07:55:52.019Z,34.54
2022-10-06T07:58:35.282Z,34.61
2022-10-06T08:01:27.125Z,34.42
2022-10-06T08:04:09.766Z,34.41
2022-10-06T08:07:05.991Z,34.43
2022-10-06T08:09:54.305Z,34.51
2022-10-06T08:12:43.077Z,34.70
2022-10-06T08:15:31.314Z,34.64
2022-10-06T08:18:33.691Z,34.86
2022-10-06T08:21:29.083Z,34.48
2022-10-06T08:24:11.988Z,34.74
2022-10-06T08:27:00.979Z,34.51
2022-10-06T08:29:43.343Z,34.64
2022-10-06T08:32:33.060Z,34.45
2022-10-06T08:35:15.441Z,34.08
2022-10-06T08:38:04.093Z,34.75
2022-10-06T08:40:49.299Z,34.71
2022-10-06T08:43:41.096Z,33.99
2022-10-06T08:46:24.888Z,34.11
2022-10-06T08:49:15.079Z,34.21
2022-10-06T08:52:22.361Z,34.17
2022-10-06T08:55:34.999Z,33.67
2022-10-06T08:58:54.916Z,34.62
2022-10-06T09:01:53.106Z,34.78
2022-10-06T09:04:46.935Z,34.51
2022-10-06T09:08:25.013Z,33.94
2022-10-06T09:11:31.078Z,34.39
2022-10-06T09:14:26.838Z,34.36
2022-10-06T09:17:24.000Z,34.35
2022-10-06T09:20:12.322Z,34.66
2022-10-06T09:23:05.071Z,34.67
2022-10-06T09:25:47.280Z,34.74
2022-10-06T09:28:36.101Z,34.66
2022-10-06T09:31:39.372Z,34.45
2022-10-06T09:34:37.093Z,34.57
2022-10-06T09:37:20.322Z,34.49
2022-10-06T09:40:08.093Z,34.31
2022-10-06T09:42:54.611Z,34.08
2022-10-06T09:45:43.071Z,34.11
2022-10-06T09:48:31.299Z,33.54
2022-10-06T09:51:20.056Z,34.16
2022-10-06T09:54:31.416Z,34.33
2022-10-06T09:57:34.004Z,34.33
2022-10-06T10:00:41.390Z,34.45
2022-10-06T10:03:33.992Z,34.51
2022-10-06T10:06:37.287Z,34.21
2022-10-06T10:09:29.028Z,34.43
2022-10-06T10:12:31.988Z,34.05
2022-10-06T10:15:20.027Z,34.48
2022-10-06T10:18:14.502Z,34.19
2022-10-06T10:21:05.015Z,34.29
2022-10-06T10:24:03.456Z,34.38
2022-10-06T10:27:02.030Z,34.38
2022-10-06T10:29:53.346Z,34.07
2022-10-06T10:33:05.022Z,34.31
2022-10-06T10:35:59.009Z,34.39
2022-10-06T10:38:46.320Z,34.13
2022-10-06T10:41:42.994Z,34.31
2022-10-06T10:44:36.314Z,34.18
2022-10-06T10:47:46.014Z,33.98
2022-10-06T10:50:37.414Z,33.95
2022-10-06T10:53:29.010Z,33.86
2022-10-06T10:56:13.330Z,33.83
2022-10-06T10:59:15.005Z,33.73
2022-10-06T11:02:27.481Z,33.64
2022-10-06T11:05:50.876Z,33.81
2022-10-06T11:09:18.057Z,33.53
2022-10-06T11:12:25.302Z,33.34
2022-10-06T11:15:20.022Z,33.42
2022-10-06T11:18:09.298Z,33.28
2022-10-06T11:21:13.997Z,33.28
2022-10-06T11:24:18.473Z,33.30
2022-10-06T11:27:25.054Z,33.28
2022-10-06T11:30:10.308Z,33.11
2022-10-06T11:33:08.977Z,33.13
2022-10-06T11:35:53.273Z,33.03
2022-10-06T11:38:50.020Z,33.02
2022-10-06T11:41:41.565Z,32.92
2022-10-06T11:44:55.006Z,32.90
2022-10-06T11:47:40.286Z,32.90
2022-10-06T11:50:46.081Z,32.90
2022-10-06T11:53:40.586Z,32.94
2022-10-06T11:56:29.023Z,33.00
2022-10-06T11:59:21.288Z,32.85
2022-10-06T12:02:10.153Z,33.00
2022-10-06T12:05:54.894Z,32.78
2022-10-06T12:08:48.012Z,32.72
2022-10-06T12:11:48.756Z,32.69
2022-10-06T12:17:59.348Z,32.45
2022-10-06T12:21:06.010Z,32.65
2022-10-06T12:24:11.037Z,32.66
2022-10-06T12:27:16.061Z,32.58
2022-10-06T12:30:15.125Z,32.48
2022-10-06T12:33:06.931Z,32.43
2022-10-06T12:35:50.136Z,32.49
2022-10-06T12:38:48.305Z,32.28
2022-10-06T12:42:03.129Z,32.35
2022-10-06T12:44:56.126Z,32.09
2022-10-06T12:47:46.056Z,32.21
2022-10-06T12:50:37.004Z,32.21
2022-10-06T12:53:33.930Z,32.05
2022-10-06T12:56:36.074Z,32.11
2022-10-06T12:59:49.996Z,32.12
2022-10-06T13:02:38.398Z,32.00
2022-10-06T13:05:21.019Z,32.08
2022-10-06T13:08:17.145Z,32.14
2022-10-06T13:11:35.366Z,31.96
2022-10-06T13:14:22.105Z,31.89
2022-10-06T13:17:10.361Z,31.92
2022-10-06T13:19:53.050Z,31.93
2022-10-06T13:22:42.538Z,31.85
2022-10-06T13:25:24.987Z,31.89
2022-10-06T13:28:14.380Z,31.84
2022-10-06T13:31:29.095Z,31.88
2022-10-06T13:34:28.175Z,31.82
2022-10-06T13:37:11.072Z,31.79
2022-10-06T13:40:00.847Z,31.84
2022-10-06T13:42:43.987Z,31.82
2022-10-06T13:45:32.895Z,31.76
2022-10-06T13:48:23.089Z,31.62
2022-10-06T13:51:12.368Z,31.56
2022-10-06T13:53:58.063Z,31.50
2022-10-06T13:56:48.328Z,31.55
2022-10-06T13:59:41.998Z,31.41
2022-10-06T14:02:38.617Z,31.53
2022-10-06T14:05:52.040Z,31.49
2022-10-06T14:08:41.548Z,31.45
2022-10-06T14:11:33.135Z,31.46
2022-10-06T14:14:26.413Z,31.48
2022-10-06T14:17:08.977Z,31.38
2022-10-06T14:20:05.088Z,31.36
2022-10-06T14:22:54.536Z,31.30
2022-10-06T14:25:37.109Z,31.29
2022-10-06T14:28:19.305Z,31.36
2022-10-06T14:31:13.477Z,31.30
2022-10-06T14:34:04.539Z,31.18
2022-10-06T14:36:47.084Z,31.25
2022-10-06T14:39:36.347Z,31.14
2022-10-06T14:42:20.109Z,31.13
2022-10-06T14:45:10.085Z,31.09
2022-10-06T14:47:54.042Z,31.16
2022-10-06T14:50:44.800Z,31.10
2022-10-06T14:53:28.069Z,31.00
2022-10-06T14:56:26.041Z,31.00
2022-10-06T14:59:20.009Z,30.96
2022-10-06T15:02:09.054Z,30.84
2022-10-06T15:04:58.358Z,30.86
2022-10-06T15:07:59.054Z,30.88
2022-10-06T15:10:47.410Z,30.88
2022-10-06T15:13:30.008Z,30.85
2022-10-06T15:16:19.695Z,30.84
2022-10-06T15:19:04.368Z,30.81
2022-10-06T15:21:53.334Z,30.76
2022-10-06T15:24:36.106Z,30.71
2022-10-06T15:27:42.561Z,30.73
2022-10-06T15:30:25.089Z,30.71
2022-10-06T15:33:14.373Z,30.62
2022-10-06T15:36:22.334Z,30.47
2022-10-06T15:39:33.370Z,30.54
2022-10-06T15:42:16.044Z,30.49
2022-10-06T15:45:07.626Z,30.52
2022-10-06T15:47:52.113Z,30.50
2022-10-06T15:50:41.851Z,30.44
2022-10-06T15:53:25.000Z,30.38
2022-10-06T15:56:20.883Z,30.46
2022-10-06T15:59:10.118Z,30.36
2022-10-06T16:01:57.425Z,30.32
2022-10-06T16:04:46.982Z,30.33
2022-10-06T16:07:32.431Z,30.28
2022-10-06T16:10:21.050Z,30.29
2022-10-06T16:13:03.510Z,30.28
2022-10-06T16:16:04.208Z,30.31
2022-10-06T16:18:46.482Z,30.29
2022-10-06T16:21:37.134Z,30.23
2022-10-06T16:24:19.535Z,30.18
2022-10-06T16:27:08.130Z,30.16
2022-10-06T16:29:50.437Z,30.19
2022-10-06T16:32:39.267Z,30.14
2022-10-06T16:35:22.539Z,30.12
2022-10-06T16:38:11.035Z,30.11
2022-10-06T16:41:10.329Z,30.08
2022-10-06T16:44:01.082Z,30.03
2022-10-06T16:46:43.429Z,30.05
2022-10-06T16:49:32.427Z,30.00
2022-10-06T16:52:14.350Z,29.94
2022-10-06T16:55:04.232Z,29.86
2022-10-06T16:57:52.452Z,29.90
2022-10-06T17:00:35.133Z,29.84
2022-10-06T17:03:23.391Z,29.85
2022-10-06T17:06:18.082Z,29.79
2022-10-06T17:09:09.353Z,29.75
2022-10-06T17:11:55.016Z,29.72
2022-10-06T17:14:43.321Z,29.72
2022-10-06T17:17:26.045Z,29.69
2022-10-06T17:20:09.083Z,29.70
2022-10-06T17:22:58.051Z,29.73
2022-10-06T17:25:47.476Z,29.69
2022-10-06T17:28:30.048Z,29.63
2022-10-06T17:31:19.038Z,29.68
2022-10-06T17:34:08.044Z,29.65
2022-10-06T17:36:58.969Z,29.62
2022-10-06T17:39:46.172Z,29.57
2022-10-06T17:42:36.101Z,29.58
2022-10-06T17:45:21.401Z,29.57
2022-10-06T17:48:11.028Z,29.54
2022-10-06T17:51:05.427Z,29.54
2022-10-06T17:53:59.000Z,29.59
2022-10-06T17:56:54.947Z,29.55
2022-10-06T17:59:43.996Z,29.54
2022-10-06T18:02:26.502Z,29.56
2022-10-06T18:05:14.977Z,29.55
2022-10-06T18:07:59.656Z,29.50
2022-10-06T18:11:13.977Z,29.46
2022-10-06T18:13:56.452Z,29.39
2022-10-06T18:16:52.075Z,29.30
2022-10-06T18:19:39.458Z,29.24
2022-10-06T18:22:27.990Z,29.30
2022-10-06T18:25:11.009Z,29.31
2022-10-06T18:27:59.999Z,29.51
2022-10-06T18:30:42.318Z,29.46
2022-10-06T18:36:39.954Z,29.68
2022-10-06T18:39:22.170Z,29.52
2022-10-06T18:42:13.065Z,29.52
2022-10-06T18:45:26.033Z,29.58
2022-10-06T18:48:27.816Z,29.45
2022-10-06T18:51:16.972Z,29.29
2022-10-06T18:54:05.304Z,29.50
2022-10-06T18:56:57.963Z,29.38
2022-10-06T18:59:47.978Z,29.60
2022-10-06T19:02:30.416Z,29.43
2022-10-06T19:05:18.954Z,29.56
2022-10-06T19:08:02.807Z,29.35
2022-10-06T19:11:11.986Z,29.11
2022-10-06T19:14:01.019Z,29.11
2022-10-06T19:16:54.015Z,29.14
2022-10-06T19:19:38.250Z,29.00
2022-10-06T19:22:31.966Z,28.93
2022-10-06T19:25:14.965Z,28.78
2022-10-06T19:28:03.997Z,28.64
2022-10-06T19:30:48.038Z,28.70
2022-10-06T19:33:39.973Z,28.91
2022-10-06T19:36:23.253Z,28.82
2022-10-06T19:39:17.434Z,29.05
2022-10-06T19:42:17.658Z,29.10
2022-10-06T19:45:07.052Z,28.75
2022-10-06T19:47:49.269Z,28.78
2022-10-06T19:50:38.016Z,28.99
2022-10-06T19:53:20.328Z,29.13
2022-10-06T19:56:17.028Z,29.26
2022-10-06T19:59:07.236Z,29.12
2022-10-06T20:01:50.046Z,29.13
2022-10-06T20:04:40.644Z,29.03
2022-10-06T20:07:22.964Z,29.03
2022-10-06T20:10:12.047Z,28.92
2022-10-06T20:13:01.027Z,28.91
2022-10-06T20:15:43.162Z,29.05
2022-10-06T20:18:33.032Z,28.94
2022-10-06T20:21:26.239Z,29.20
2022-10-06T20:24:12.135Z,28.59
2022-10-06T20:26:55.115Z,28.97
2022-10-06T20:29:44.972Z,28.10
2022-10-06T20:32:33.962Z,28.87
2022-10-06T20:35:16.315Z,28.93
2022-10-06T20:38:04.978Z,28.96
2022-10-06T20:40:51.240Z,28.98
2022-10-06T20:43:40.967Z,28.94
2022-10-06T20:46:29.932Z,28.86
2022-10-06T20:49:29.945Z,28.95
2022-10-06T20:52:21.897Z,28.79
2022-10-06T20:55:13.961Z,28.86
2022-10-06T20:58:08.982Z,28.92
2022-10-06T21:00:57.319Z,28.89
2022-10-06T21:03:40.051Z,28.88
2022-10-06T21:06:31.257Z,28.77
2022-10-06T21:09:15.984Z,28.94
2022-10-06T21:11:58.516Z,28.72
2022-10-06T21:14:50.030Z,28.82
2022-10-06T21:17:38.300Z,28.74
2022-10-06T21:20:20.987Z,28.64
2022-10-06T21:23:04.212Z,28.70
2022-10-06T21:25:53.045Z,28.67
2022-10-06T21:28:43.407Z,28.61
2022-10-06T21:31:28.086Z,28.81
2022-10-06T21:34:11.472Z,28.80
2022-10-06T21:37:00.015Z,28.64
2022-10-06T21:39:50.055Z,28.62
2022-10-06T21:42:32.303Z,28.70
2022-10-06T21:45:24.220Z,28.62
2022-10-06T21:48:07.264Z,28.62
2022-10-06T21:51:02.008Z,28.73
2022-10-06T21:53:44.248Z,28.59
2022-10-06T21:56:34.056Z,28.29
2022-10-06T21:59:37.832Z,28.26
2022-10-06T22:02:27.050Z,28.34
2022-10-06T22:05:15.976Z,28.50
2022-10-06T22:07:58.154Z,28.60
2022-10-06T22:10:46.986Z,28.57
2022-10-06T22:13:37.238Z,28.43
2022-10-06T22:16:23.054Z,28.55
2022-10-06T22:19:14.332Z,28.58
2022-10-06T22:21:57.036Z,28.59
2022-10-06T22:24:45.270Z,28.58
2022-10-06T22:27:26.974Z,28.22
2022-10-06T22:30:15.989Z,28.09
2022-10-06T22:32:58.260Z,28.29
2022-10-06T22:35:46.989Z,28.41
2022-10-06T22:38:29.309Z,27.97
2022-10-06T22:41:20.988Z,28.15
2022-10-06T22:44:05.273Z,28.09
2022-10-06T22:46:55.379Z,28.19
2022-10-06T22:49:37.278Z,28.44
2022-10-06T22:52:26.033Z,28.34
2022-10-06T22:55:08.266Z,28.43
2022-10-06T22:58:02.983Z,28.46
2022-10-06T23:00:46.260Z,28.48
2022-10-06T23:03:35.187Z,28.46
2022-10-06T23:06:26.291Z,28.29
2022-10-06T23:09:09.033Z,28.27
2022-10-06T23:11:57.266Z,28.32
2022-10-06T23:14:38.975Z,28.42
2022-10-06T23:17:21.173Z,28.25
2022-10-06T23:20:09.982Z,28.33
2022-10-06T23:22:58.366Z,28.29
2022-10-06T23:25:44.981Z,28.28
2022-10-06T23:28:27.220Z,28.31
2022-10-06T23:31:15.968Z,28.24
2022-10-06T23:34:04.979Z,28.10
